Pagrindinis puslapis
METAR-TAF:

METAR-TAF

Oro uostai :

Ponta Porã, Pietų Mato Grosas, Brazilija

platuma: 22-33S, ilguma: 055-42W, Aukštis: 657 m

Dabartinis oras

Ataskaita buvo paskelbta 11 valandos ir 2 minutes, ne 22:00 UTC
Ramus vėjas
Temperatūra 22°C
Drėgmė 73%
Slėgis 1010 hPa
Matomumas: 3000 m
migla

METAR: SBPP 172200Z 00000KT 3000 HZ NSC 22/17 Q1010

Laikas: 05:02 (09:02 UTC)

Prognozė

Ataskaita buvo paskelbta 5 valandos ir 2 minutes, ne 04:00 UTC
Prognozė galioja nuo 18 metu 06 UTC su 19 metu 06 UTC
Vėjas 5 kt iš Pietų
Matomumas: 2000 m
rūkana
Tikimybė 40%
nuo 18 metu 10 UTC su 18 metu 12 UTC
Apsiniaukę ne aukštis 100 ft
Tapsmas
nuo 18 metu 13 UTC su 18 metu 15 UTC
Matomumas: 2500 m
migla
Tapsmas
nuo 19 metu 02 UTC su 19 metu 04 UTC
Matomumas: 2500 m
rūkana

TAF: SBPP 180400Z 1806/1906 18005KT 2000 BR NSC TN20/1808Z TX24/1818Z PROB40 1810/1812 OVC001 BECMG 1813/1815 2500 HZ BECMG 1902/1904 2500 BR RMK PDU

Orai ataskaitas ir orų prognozės (METAR, TAF).

turimą stotys yra geltonos ir raudonos taškus žemėlapyje.

Perkelti pele per norėdami pamatyti stoties vardą.

Tada spustelėkite, norėdami matyti oro stebėjimo ir prognozės.

Norėdami pakeisti žemėlapį: spustelėkite ant žalios mygtukų su juodo kryžiaus žemyn,; žalią mygtuką su brūkšneliu, jei norite nutolinti; arba žalių rodyklių gretimoms žemėlapius.


METAR-TAF: